LFBO/TLS METAR and TAF weather

Enter ICAO airport designator
Station Type Date Time Source
LFBO METAR 2020/09/26 10:00 UTC NOAA

LFBO 261000Z AUTO 28014KT 9999 SCT023 BKN028 BKN066 14/09 Q1017 BECMG SCT015 FEW030TCU BKN060


Station Type Date Time Source
LFBO Decoded METAR 2020/09/26 10:00 UTC NOAA

Toulouse / Blagnac, France (LFBO) 43-38N 001-22E 153M
Sep 26, 2020 - 06:00 AM EDT / 2020.09.26 1000 UTC
Wind: from the W (280 degrees) at 16 MPH (14 KT):0
Visibility: greater than 7 mile(s):0
Sky conditions: mostly cloudy
Weather: Towering cumulus clouds observed
Temperature: 57 F (14 C)
Dew Point: 48 F (9 C)
Relative Humidity: 71%
Pressure (altimeter): 30.03 in. Hg (1017 hPa)
ob: LFBO 261000Z AUTO 28014KT 9999 SCT023 BKN028 BKN066 14/09 Q1017 BECMG SCT015 FEW030TCU BKN060
cycle: 10

Station Type Date Time Source
LFBO TAF 2020/09/26 06:21 UTC NOAA

TAF LFBO 260500Z 2606/2712 28012KT 9999 SCT015 FEW030TCU BKN060 PROB40
TEMPO 2606/2609 4000 SHRA BKN012 SCT025TCU BKN050
BECMG 2614/2616 36008KT 4500 -RA OVC013
TEMPO 2615/2622 2000 RA OVC008 FEW030TCU
BECMG 2621/2623 32012KT 9999 NSW SCT015 PROB30
TEMPO 2700/2707 BKN010

Example: see airport list